Time;durP1;ratioP1;P1;durP2;ratioP2;P2;SDS_P1;SDS_P2;PMS_P1;PMS_P2;Temp;Humidity;BMP_temperature;BMP_pressure;BME280_temperature;BME280_humidity;BME280_pressure;Samples;Min_cycle;Max_cycle;Signal;HPM_P1;HPM_P2
2021/12/30 00:01:18;;;;;;;26.83;7.17;;;;;;;9.38;100.00;149823.31;5020328;28;20017;-70
2021/12/30 00:03:46;;;;;;;22.53;6.53;;;;;;;9.32;100.00;149807.75;5018800;28;20402;-70
2021/12/30 00:06:11;;;;;;;23.30;7.43;;;;;;;9.25;100.00;149789.69;5025600;28;20368;-70
2021/12/30 00:08:37;;;;;;;19.47;6.87;;;;;;;9.53;100.00;149859.53;5034422;28;20112;-70
2021/12/30 00:11:04;;;;;;;22.00;6.27;;;;;;;9.42;100.00;149831.06;5025988;28;20531;-70
2021/12/30 00:13:30;;;;;;;19.37;5.87;;;;;;;9.64;100.00;149889.31;5021982;28;20141;-70
2021/12/30 00:15:56;;;;;;;19.90;6.07;;;;;;;9.75;100.00;149916.50;5033178;28;20116;-70
2021/12/30 00:18:21;;;;;;;26.03;6.70;;;;;;;9.80;100.00;149929.41;5032625;28;20020;-69
2021/12/30 00:20:47;;;;;;;23.53;6.13;;;;;;;9.76;100.00;149919.06;5011252;28;20518;-70
2021/12/30 00:23:13;;;;;;;20.37;6.53;;;;;;;9.79;100.00;149926.81;5023623;28;20029;-70
2021/12/30 00:25:42;;;;;;;27.10;5.43;;;;;;;9.84;100.00;149939.81;5022971;28;20099;-71
2021/12/30 00:28:14;;;;;;;18.93;6.80;;;;;;;9.81;100.00;149932.03;5023084;28;20032;-70
2021/12/30 00:30:40;;;;;;;22.13;5.72;;;;;;;9.74;100.00;149912.63;5027276;28;20140;-70
2021/12/30 00:33:07;;;;;;;26.07;6.50;;;;;;;9.71;100.00;149906.16;5023787;28;20044;-70
2021/12/30 00:35:32;;;;;;;15.30;5.30;;;;;;;9.71;100.00;149906.16;5027389;28;20036;-69
2021/12/30 00:37:58;;;;;;;21.63;5.83;;;;;;;9.49;100.00;149850.50;5024246;28;20381;-70
2021/12/30 00:40:23;;;;;;;20.17;5.20;;;;;;;9.68;100.00;149898.34;5028227;28;20132;-70
2021/12/30 00:42:49;;;;;;;21.97;5.30;;;;;;;9.64;100.00;149888.00;5021713;28;20029;-70
2021/12/30 00:45:15;;;;;;;27.03;5.43;;;;;;;9.53;100.00;149860.84;5024735;28;20025;-70
2021/12/30 00:47:40;;;;;;;20.33;5.57;;;;;;;9.52;100.00;149856.97;5029785;28;20112;-70
2021/12/30 00:50:06;;;;;;;18.50;5.23;;;;;;;9.55;100.00;149866.00;5029046;28;20029;-70
2021/12/30 00:52:32;;;;;;;20.90;6.77;;;;;;;9.55;100.00;149864.72;5020124;28;20117;-70
2021/12/30 00:54:57;;;;;;;15.77;4.83;;;;;;;9.59;100.00;149875.09;5028641;28;20103;-70
2021/12/30 00:57:23;;;;;;;19.57;4.00;;;;;;;9.54;100.00;149863.41;5022925;28;20030;-70
2021/12/30 00:59:48;;;;;;;16.60;4.20;;;;;;;9.67;100.00;149895.78;5020636;28;20083;-70
2021/12/30 01:02:13;;;;;;;12.90;4.57;;;;;;;9.67;100.00;149897.06;5022014;28;20410;-69
2021/12/30 01:04:39;;;;;;;19.70;4.80;;;;;;;9.65;100.00;149890.59;5025135;28;20029;-70
2021/12/30 01:07:04;;;;;;;15.57;3.87;;;;;;;9.69;100.00;149900.94;5029005;28;20524;-69
2021/12/30 01:09:30;;;;;;;14.40;4.67;;;;;;;9.80;100.00;149928.13;5023229;28;20083;-69
2021/12/30 01:11:56;;;;;;;16.07;4.57;;;;;;;9.73;100.00;149911.31;5027626;28;20185;-70
2021/12/30 01:14:25;;;;;;;23.57;4.70;;;;;;;9.81;100.00;149932.03;5021507;28;20087;-69
2021/12/30 01:16:56;;;;;;;15.60;3.93;;;;;;;9.85;100.00;149941.09;5025671;28;20031;-69
2021/12/30 01:19:42;;;;;;;19.50;5.80;;;;;;;9.77;100.00;149921.66;5019784;28;20025;-69
2021/12/30 01:22:28;;;;;;;21.00;5.00;;;;;;;9.66;100.00;149894.47;5019004;28;20155;-69
2021/12/30 01:24:54;;;;;;;14.83;4.03;;;;;;;9.63;100.00;149886.72;5017228;28;20043;-69
2021/12/30 01:27:20;;;;;;;14.80;3.87;;;;;;;9.64;100.00;149888.00;5020008;28;20201;-69
2021/12/30 01:29:47;;;;;;;28.03;4.70;;;;;;;9.59;100.00;149876.38;5025366;28;20517;-69
2021/12/30 01:32:13;;;;;;;19.93;4.60;;;;;;;9.56;100.00;149867.28;5026547;28;20059;-69
2021/12/30 01:34:38;;;;;;;16.50;3.90;;;;;;;9.65;100.00;149890.59;5024636;28;20026;-69
2021/12/30 01:37:05;;;;;;;19.27;4.27;;;;;;;9.80;100.00;149928.13;5019520;28;20056;-69
2021/12/30 01:39:33;;;;;;;21.10;4.33;;;;;;;9.80;100.00;149929.41;5018921;28;20029;-69
2021/12/30 01:41:59;;;;;;;16.57;4.10;;;;;;;9.80;100.00;149928.13;5024343;28;20056;-69
2021/12/30 01:44:25;;;;;;;22.97;3.97;;;;;;;9.78;100.00;149924.25;5021898;28;20141;-69
2021/12/30 01:46:51;;;;;;;15.73;3.67;;;;;;;9.78;100.00;149924.25;5023388;28;20029;-69
2021/12/30 01:49:18;;;;;;;22.73;4.73;;;;;;;9.76;100.00;149917.78;5020767;28;20320;-69
2021/12/30 01:51:44;;;;;;;16.83;3.50;;;;;;;9.76;100.00;149919.06;5018941;28;20095;-69
2021/12/30 01:54:10;;;;;;;23.67;4.23;;;;;;;9.58;100.00;149872.50;5018317;28;20165;-69
2021/12/30 01:56:36;;;;;;;25.27;5.83;;;;;;;9.62;100.00;149884.13;5014691;28;20033;-69
2021/12/30 01:59:03;;;;;;;17.23;4.13;;;;;;;9.56;100.00;149867.28;5020108;28;20336;-69
2021/12/30 02:01:29;;;;;;;18.97;4.77;;;;;;;9.46;100.00;149841.44;5008030;28;20029;-70
2021/12/30 02:03:54;;;;;;;19.93;4.87;;;;;;;9.27;100.00;149794.84;5075769;22;20143;-70
2021/12/30 02:06:20;;;;;;;24.47;3.93;;;;;;;9.33;100.00;149809.09;5070596;28;20126;-70
2021/12/30 02:08:46;;;;;;;18.03;4.40;;;;;;;9.33;100.00;149810.41;5070280;28;20028;-70
2021/12/30 02:11:11;;;;;;;26.27;4.43;;;;;;;9.21;100.00;149779.34;5070419;28;20024;-70
2021/12/30 02:13:37;;;;;;;24.27;4.57;;;;;;;9.00;100.00;149725.00;5070487;28;20024;-70
2021/12/30 02:16:04;;;;;;;24.43;4.93;;;;;;;9.03;100.00;149732.75;5070114;28;20048;-70
2021/12/30 02:18:31;;;;;;;24.00;4.10;;;;;;;8.90;100.00;149699.13;5070036;28;20112;-70
2021/12/30 02:20:58;;;;;;;22.00;4.20;;;;;;;8.76;100.00;149665.50;5070217;28;20052;-70
2021/12/30 02:23:26;;;;;;;19.57;3.93;;;;;;;8.80;100.00;149675.84;5070394;28;20075;-70
2021/12/30 02:25:53;;;;;;;20.87;4.50;;;;;;;8.77;100.00;149668.09;5070478;28;20085;-70
2021/12/30 02:28:23;;;;;;;21.23;4.00;;;;;;;8.71;100.00;149652.53;5069958;28;20469;-70
2021/12/30 02:30:49;;;;;;;16.40;3.97;;;;;;;8.60;100.00;149622.81;5069895;28;20044;-70
2021/12/30 02:33:15;;;;;;;23.90;3.80;;;;;;;8.55;100.00;149611.19;5069936;28;20094;-70
2021/12/30 02:35:41;;;;;;;19.70;3.93;;;;;;;8.74;100.00;149659.06;5072404;28;20028;-70
2021/12/30 02:38:07;;;;;;;20.20;4.07;;;;;;;8.61;100.00;149626.72;5074307;28;20081;-70
2021/12/30 02:40:38;;;;;;;28.03;4.07;;;;;;;8.59;100.00;149621.50;5073893;28;20100;-70
2021/12/30 02:43:06;;;;;;;22.80;3.55;;;;;;;8.56;100.00;149613.75;5073906;28;20099;-70
2021/12/30 02:45:32;;;;;;;21.10;5.00;;;;;;;8.61;100.00;149626.72;5073989;28;20032;-70
2021/12/30 02:47:57;;;;;;;21.30;4.20;;;;;;;8.55;100.00;149609.91;5073850;28;20027;-70
2021/12/30 02:50:22;;;;;;;19.97;4.07;;;;;;;8.58;100.00;149618.94;5073830;28;20024;-70
2021/12/30 02:52:48;;;;;;;36.80;4.33;;;;;;;8.45;100.00;149586.59;5073717;28;20028;-70
2021/12/30 02:55:14;;;;;;;21.73;4.50;;;;;;;8.45;100.00;149585.31;5073704;28;20023;-70
2021/12/30 02:57:39;;;;;;;13.80;3.93;;;;;;;8.54;100.00;149608.59;5074007;28;20021;-70
2021/12/30 03:00:08;;;;;;;23.37;4.10;;;;;;;8.55;100.00;149609.91;5073718;28;20024;-70
2021/12/30 03:02:38;;;;;;;22.33;4.50;;;;;;;8.73;100.00;149657.75;5068071;28;20060;-70
2021/12/30 03:05:06;;;;;;;17.37;3.77;;;;;;;8.72;100.00;149655.19;5064089;28;20171;-71
2021/12/30 03:07:32;;;;;;;23.23;4.67;;;;;;;8.84;100.00;149684.88;5061627;28;20062;-70
2021/12/30 03:09:57;;;;;;;36.07;5.73;;;;;;;8.92;100.00;149704.28;5063586;28;20336;-70
2021/12/30 03:12:23;;;;;;;32.80;5.80;;;;;;;8.88;100.00;149695.25;5061970;28;20182;-70
2021/12/30 03:14:48;;;;;;;22.10;4.13;;;;;;;8.87;100.00;149691.38;5060149;28;20564;-70
2021/12/30 03:17:13;;;;;;;24.37;5.43;;;;;;;8.84;100.00;149683.59;5061221;28;20036;-70
2021/12/30 03:19:39;;;;;;;26.33;7.23;;;;;;;8.91;100.00;149701.72;5067207;28;20506;-67
2021/12/30 03:22:04;;;;;;;25.40;4.93;;;;;;;8.89;100.00;149696.53;5063401;28;20064;-68
2021/12/30 03:24:30;;;;;;;29.73;6.00;;;;;;;8.95;100.00;149712.03;5060928;28;20035;-67
2021/12/30 03:26:55;;;;;;;28.77;4.67;;;;;;;8.88;100.00;149693.97;5065245;28;20086;-67
2021/12/30 03:29:21;;;;;;;25.33;4.60;;;;;;;8.95;100.00;149712.03;5059570;28;20587;-68
2021/12/30 03:31:47;;;;;;;20.60;4.90;;;;;;;8.94;100.00;149710.75;5063577;28;20261;-67
2021/12/30 03:34:13;;;;;;;24.37;5.63;;;;;;;8.87;100.00;149691.38;5060166;28;20024;-68
2021/12/30 03:36:38;;;;;;;28.53;5.37;;;;;;;8.91;100.00;149701.72;5069919;28;20714;-68
2021/12/30 03:39:05;;;;;;;33.17;5.30;;;;;;;8.97;100.00;149717.25;5059651;28;20028;-68
2021/12/30 03:41:31;;;;;;;22.83;4.77;;;;;;;8.92;100.00;149704.28;5063266;28;20037;-67
2021/12/30 03:44:00;;;;;;;16.17;4.57;;;;;;;8.82;100.00;149679.72;5060272;28;20449;-68
2021/12/30 03:46:26;;;;;;;24.37;5.47;;;;;;;8.85;100.00;149687.50;5059535;28;20119;-67
2021/12/30 03:48:52;;;;;;;21.07;4.43;;;;;;;8.99;100.00;149722.41;5060650;28;20036;-68
2021/12/30 03:51:24;;;;;;;17.37;4.67;;;;;;;9.00;100.00;149725.00;5056784;28;20035;-68
2021/12/30 03:53:56;;;;;;;19.50;4.67;;;;;;;8.95;100.00;149713.34;5066564;28;20495;-67
2021/12/30 03:56:26;;;;;;;21.77;4.50;;;;;;;8.97;100.00;149717.25;5068664;28;20028;-67
2021/12/30 03:58:52;;;;;;;24.10;4.17;;;;;;;8.92;100.00;149704.28;5059961;28;20453;-67
2021/12/30 04:01:20;;;;;;;22.40;5.10;;;;;;;9.04;100.00;149735.34;5063653;28;20024;-67
2021/12/30 04:03:46;;;;;;;23.13;4.60;;;;;;;9.08;100.00;149745.66;5068379;28;20068;-67
2021/12/30 04:06:12;;;;;;;25.97;5.30;;;;;;;9.14;100.00;149759.94;5064774;28;20036;-67
2021/12/30 04:08:38;;;;;;;17.67;5.03;;;;;;;9.10;100.00;149750.88;5059581;28;20416;-67
2021/12/30 04:11:04;;;;;;;24.83;5.27;;;;;;;9.08;100.00;149745.66;5067017;28;20043;-67
2021/12/30 04:13:31;;;;;;;24.40;5.53;;;;;;;9.05;100.00;149737.91;5066733;28;20048;-67
2021/12/30 04:15:56;;;;;;;24.50;3.87;;;;;;;9.02;100.00;149730.16;5060872;28;20051;-67
2021/12/30 04:18:22;;;;;;;16.73;4.07;;;;;;;9.13;100.00;149758.63;5059253;28;20024;-67
2021/12/30 04:20:47;;;;;;;26.90;4.47;;;;;;;9.12;100.00;149754.75;5067315;28;20699;-67
2021/12/30 04:23:14;;;;;;;24.77;4.80;;;;;;;9.14;100.00;149759.94;5064088;28;20051;-67
2021/12/30 04:25:40;;;;;;;23.67;4.63;;;;;;;9.13;100.00;149758.63;5060692;28;20021;-67
2021/12/30 04:28:06;;;;;;;18.67;4.97;;;;;;;9.18;100.00;149770.25;5058752;28;20039;-67
2021/12/30 04:30:32;;;;;;;25.57;5.00;;;;;;;9.20;100.00;149775.41;5060452;28;20024;-67
2021/12/30 04:32:58;;;;;;;25.83;4.80;;;;;;;9.17;100.00;149767.69;5060772;28;20381;-67
2021/12/30 04:35:23;;;;;;;25.40;5.60;;;;;;;9.14;100.00;149761.22;5059954;28;20498;-67
2021/12/30 04:37:49;;;;;;;19.23;5.13;;;;;;;9.18;100.00;149770.25;5062266;28;20128;-67
2021/12/30 04:40:14;;;;;;;20.93;4.20;;;;;;;9.19;100.00;149774.13;5061881;28;20024;-67
2021/12/30 04:42:41;;;;;;;25.17;5.03;;;;;;;9.23;100.00;149784.50;5059007;28;20034;-67
2021/12/30 04:45:10;;;;;;;19.63;5.47;;;;;;;9.23;100.00;149783.22;5058436;28;20025;-67
2021/12/30 04:47:38;;;;;;;26.43;5.73;;;;;;;9.16;100.00;149766.38;5061282;28;20526;-68
2021/12/30 04:50:05;;;;;;;26.97;5.50;;;;;;;9.15;100.00;149762.50;5062776;28;20253;-67
2021/12/30 04:52:31;;;;;;;23.07;5.13;;;;;;;9.21;100.00;149779.34;5063298;28;20062;-67
2021/12/30 04:54:56;;;;;;;24.03;5.63;;;;;;;9.15;100.00;149763.78;5062873;28;20169;-67
2021/12/30 04:57:22;;;;;;;28.97;5.67;;;;;;;9.17;100.00;149767.69;5059030;28;20039;-67
2021/12/30 04:59:47;;;;;;;24.13;6.00;;;;;;;9.19;100.00;149774.13;5057475;28;20036;-67
2021/12/30 05:02:13;;;;;;;22.47;5.60;;;;;;;9.18;100.00;149771.53;5060441;28;20052;-67
2021/12/30 05:04:38;;;;;;;20.90;5.33;;;;;;;9.17;100.00;149768.97;5059254;28;20017;-67
2021/12/30 05:07:04;;;;;;;26.70;6.27;;;;;;;9.22;100.00;149781.94;5069959;28;20024;-67
2021/12/30 05:09:31;;;;;;;29.27;5.63;;;;;;;9.25;100.00;149789.69;5057810;28;20169;-67
2021/12/30 05:11:57;;;;;;;24.23;5.33;;;;;;;9.33;100.00;149810.41;5059672;28;20504;-67
2021/12/30 05:14:23;;;;;;;25.37;5.37;;;;;;;9.38;100.00;149822.03;5062069;28;20026;-67
2021/12/30 05:16:49;;;;;;;29.83;5.63;;;;;;;9.49;100.00;149849.19;5062174;28;20487;-67
2021/12/30 05:19:14;;;;;;;39.83;6.47;;;;;;;9.46;100.00;149842.75;5057713;28;20329;-67
2021/12/30 05:21:40;;;;;;;22.57;4.37;;;;;;;9.42;100.00;149832.34;5059785;28;20073;-67
2021/12/30 05:24:06;;;;;;;19.23;5.97;;;;;;;9.45;100.00;149838.81;5059009;28;20491;-67
2021/12/30 05:26:31;;;;;;;26.53;5.43;;;;;;;9.40;100.00;149828.47;5062886;28;20024;-67
2021/12/30 05:28:58;;;;;;;33.13;6.13;;;;;;;9.35;100.00;149815.56;5057227;28;20683;-67
2021/12/30 05:31:25;;;;;;;19.70;5.87;;;;;;;9.46;100.00;149841.44;5064908;28;20066;-67
2021/12/30 05:33:50;;;;;;;27.70;5.27;;;;;;;9.53;100.00;149860.84;5060298;28;20016;-68
2021/12/30 05:36:16;;;;;;;23.57;6.00;;;;;;;9.57;100.00;149869.88;5066271;28;20023;-67
2021/12/30 05:38:41;;;;;;;22.93;5.70;;;;;;;9.55;100.00;149864.72;5057755;28;20554;-67
2021/12/30 05:41:07;;;;;;;25.43;5.70;;;;;;;9.67;100.00;149895.78;5067096;28;20054;-67
2021/12/30 05:43:32;;;;;;;29.00;5.83;;;;;;;9.65;100.00;149890.59;5058486;28;20024;-67
2021/12/30 05:45:58;;;;;;;32.33;6.13;;;;;;;9.62;100.00;149882.84;5061389;28;20016;-67
2021/12/30 05:48:23;;;;;;;23.57;5.77;;;;;;;9.64;100.00;149889.31;5057743;28;20539;-67
2021/12/30 05:50:49;;;;;;;26.30;6.13;;;;;;;9.60;100.00;149877.69;5058396;28;20024;-67
2021/12/30 05:53:15;;;;;;;18.90;6.07;;;;;;;9.66;100.00;149893.19;5058710;28;20043;-66
2021/12/30 05:55:41;;;;;;;28.13;6.43;;;;;;;9.67;100.00;149895.78;5058215;28;20021;-66
2021/12/30 05:58:06;;;;;;;38.50;6.67;;;;;;;9.69;100.00;149902.28;5065137;28;20510;-66
2021/12/30 06:00:32;;;;;;;27.27;5.83;;;;;;;9.81;100.00;149932.03;5060141;28;20024;-66
2021/12/30 06:02:58;;;;;;;24.73;6.77;;;;;;;9.74;100.00;149913.91;5057297;28;20186;-66
2021/12/30 06:05:24;;;;;;;25.40;7.40;;;;;;;9.69;100.00;149900.94;5066180;28;20074;-66
2021/12/30 06:07:49;;;;;;;24.77;6.80;;;;;;;9.81;100.00;149932.03;5060872;28;20037;-66
2021/12/30 06:10:16;;;;;;;32.13;7.03;;;;;;;9.81;100.00;149930.72;5057959;28;20039;-66
2021/12/30 06:12:43;;;;;;;24.70;6.53;;;;;;;9.81;100.00;149932.03;5057783;28;20331;-66
2021/12/30 06:15:10;;;;;;;31.77;7.63;;;;;;;9.84;100.00;149939.81;5057765;28;20534;-66
2021/12/30 06:17:37;;;;;;;32.43;7.57;;;;;;;9.82;100.00;149934.63;5057505;28;20581;-66
2021/12/30 06:20:09;;;;;;;32.70;7.40;;;;;;;9.88;100.00;149950.13;5057421;28;20258;-66
2021/12/30 06:22:34;;;;;;;;;;;;;;;9.92;100.00;149960.47;5068977;28;20028;-66
2021/12/30 06:25:00;;;;;;;29.23;8.17;;;;;;;9.88;100.00;149950.13;5062838;28;20387;-66
2021/12/30 06:27:25;;;;;;;32.77;7.80;;;;;;;9.93;100.00;149963.13;5059269;28;20461;-66
2021/12/30 06:29:51;;;;;;;32.80;8.90;;;;;;;9.93;100.00;149963.13;5057189;28;20036;-68
2021/12/30 06:32:16;;;;;;;33.40;8.30;;;;;;;9.97;100.00;149973.47;5060335;28;20250;-66
2021/12/30 06:34:42;;;;;;;39.13;8.57;;;;;;;10.02;100.00;149985.09;5063908;28;20061;-66
2021/12/30 06:37:07;;;;;;;30.80;8.30;;;;;;;10.09;100.00;150001.94;5064367;28;20332;-66
2021/12/30 06:39:33;;;;;;;34.60;8.50;;;;;;;10.13;100.00;150012.28;5057384;28;20035;-66
2021/12/30 06:41:58;;;;;;;37.63;7.70;;;;;;;10.08;100.00;150000.66;5056675;28;20036;-66
2021/12/30 06:44:23;;;;;;;31.20;7.53;;;;;;;9.97;100.00;149972.16;5060959;28;20238;-66
2021/12/30 06:46:56;;;;;;;26.43;7.30;;;;;;;9.90;100.00;149955.31;5061678;28;20024;-66
2021/12/30 06:49:22;;;;;;;25.87;8.27;;;;;;;9.93;100.00;149961.78;5060108;28;20042;-66
2021/12/30 06:51:47;;;;;;;33.07;7.73;;;;;;;9.90;100.00;149955.31;5060320;28;20249;-66
2021/12/30 06:54:13;;;;;;;40.13;9.87;;;;;;;9.90;100.00;149954.00;5056520;28;20495;-66
2021/12/30 06:56:39;;;;;;;38.00;8.90;;;;;;;9.89;100.00;149952.72;5067879;28;20028;-66
2021/12/30 06:59:05;;;;;;;48.57;8.93;;;;;;;9.92;100.00;149960.47;5056944;28;20031;-66
2021/12/30 07:01:31;;;;;;;39.63;9.53;;;;;;;9.92;100.00;149960.47;5057298;28;20036;-66
2021/12/30 07:03:56;;;;;;;40.43;9.83;;;;;;;9.93;100.00;149963.13;5058695;28;20416;-66
2021/12/30 07:06:22;;;;;;;37.17;9.07;;;;;;;9.90;100.00;149955.31;5057615;28;20025;-67
2021/12/30 07:08:48;;;;;;;43.50;9.60;;;;;;;9.93;100.00;149963.13;5061533;28;20183;-66
2021/12/30 07:11:13;;;;;;;45.13;9.80;;;;;;;9.92;100.00;149960.47;5063753;28;20020;-66
2021/12/30 07:13:39;;;;;;;38.90;9.40;;;;;;;9.99;100.00;149978.63;5065691;28;20055;-66
2021/12/30 07:16:04;;;;;;;49.70;9.50;;;;;;;10.01;100.00;149981.22;5062769;28;20252;-66
2021/12/30 07:18:30;;;;;;;38.47;10.50;;;;;;;10.00;100.00;149979.91;5058892;28;20050;-66
2021/12/30 07:20:55;;;;;;;42.40;10.17;;;;;;;9.99;100.00;149977.34;5060197;28;20032;-66
2021/12/30 07:23:21;;;;;;;44.70;9.10;;;;;;;10.03;100.00;149987.66;5062545;28;20028;-66
2021/12/30 07:25:46;;;;;;;37.17;8.57;;;;;;;10.06;100.00;149994.19;5063031;28;20457;-66
2021/12/30 07:28:12;;;;;;;32.73;8.97;;;;;;;10.19;100.00;150027.84;5059826;28;20052;-66
2021/12/30 07:30:37;;;;;;;35.57;8.13;;;;;;;10.22;100.00;150035.66;5061127;28;20178;-66
2021/12/30 07:33:06;;;;;;;32.07;8.40;;;;;;;10.25;100.00;150043.41;5068362;28;20441;-66
2021/12/30 07:35:33;;;;;;;30.17;8.07;;;;;;;10.30;100.00;150056.38;5061525;28;20288;-66
2021/12/30 07:37:58;;;;;;;26.30;8.37;;;;;;;10.33;100.00;150064.16;5064082;28;20147;-66
2021/12/30 07:40:24;;;;;;;32.60;9.10;;;;;;;10.37;100.00;150073.19;5060042;28;20333;-66
2021/12/30 07:42:50;;;;;;;26.83;7.53;;;;;;;10.45;100.00;150095.22;5062429;28;20052;-66
2021/12/30 07:45:15;;;;;;;26.43;6.90;;;;;;;10.49;100.00;150104.28;5065095;28;20127;-66
2021/12/30 07:47:41;;;;;;;31.43;7.83;;;;;;;10.51;100.00;150110.75;5064132;28;20029;-66
2021/12/30 07:50:08;;;;;;;31.53;7.63;;;;;;;10.62;100.00;150136.66;5060582;28;20028;-66
2021/12/30 07:52:34;;;;;;;25.10;6.10;;;;;;;10.69;100.00;150154.81;5060395;28;20028;-66
2021/12/30 07:55:00;;;;;;;28.93;7.40;;;;;;;10.66;100.00;150147.00;5061951;28;20576;-66
2021/12/30 07:57:25;;;;;;;28.53;6.40;;;;;;;10.73;100.00;150165.16;5067992;28;20122;-66
2021/12/30 07:59:52;;;;;;;24.67;6.23;;;;;;;10.78;100.00;150179.44;5060402;28;20028;-66
2021/12/30 08:02:18;;;;;;;22.50;5.90;;;;;;;10.90;100.00;150209.19;5063911;28;20090;-66
2021/12/30 08:04:44;;;;;;;18.87;5.67;;;;;;;10.89;100.00;150206.59;5067306;28;20030;-66
2021/12/30 08:07:10;;;;;;;21.83;5.87;;;;;;;10.89;100.00;150205.28;5062351;28;20019;-66
2021/12/30 08:09:36;;;;;;;17.40;5.07;;;;;;;10.96;100.00;150224.75;5060267;28;20487;-66
2021/12/30 08:12:01;;;;;;;19.17;5.80;;;;;;;10.96;100.00;150223.44;5068941;28;20024;-67
2021/12/30 08:14:27;;;;;;;14.67;4.57;;;;;;;11.02;100.00;150238.97;5064850;28;20103;-66
2021/12/30 08:16:53;;;;;;;16.00;4.60;;;;;;;11.06;100.00;150250.69;5062468;28;20094;-65
2021/12/30 08:19:18;;;;;;;20.53;6.17;;;;;;;11.07;100.00;150251.97;5061669;28;20269;-66
2021/12/30 08:21:44;;;;;;;17.77;5.27;;;;;;;11.07;100.00;150251.97;5064818;28;20028;-65
2021/12/30 08:24:11;;;;;;;14.37;4.67;;;;;;;11.09;100.00;150258.44;5062195;28;20028;-65
2021/12/30 08:26:37;;;;;;;13.73;4.23;;;;;;;11.11;100.00;150262.31;5067244;28;20484;-65
2021/12/30 08:29:03;;;;;;;14.57;4.80;;;;;;;11.14;100.00;150271.41;5060956;28;20028;-65
2021/12/30 08:31:29;;;;;;;14.53;4.93;;;;;;;11.11;100.00;150263.59;5063207;28;20541;-65
2021/12/30 08:33:54;;;;;;;12.77;4.17;;;;;;;11.18;100.00;150279.19;5058703;28;20036;-65
2021/12/30 08:36:20;;;;;;;15.03;4.23;;;;;;;11.15;100.00;150274.00;5068985;28;20442;-65
2021/12/30 08:38:45;;;;;;;14.23;4.10;;;;;;;11.18;100.00;150279.19;5059151;28;20373;-65
2021/12/30 08:41:11;;;;;;;15.70;4.43;;;;;;;11.20;100.00;150284.34;5059155;28;20128;-65
2021/12/30 08:43:36;;;;;;;14.30;4.63;;;;;;;11.21;100.00;150288.25;5057500;28;20488;-65
2021/12/30 08:46:02;;;;;;;14.27;4.43;;;;;;;11.22;100.00;150289.53;5065198;28;20047;-65
2021/12/30 08:48:27;;;;;;;12.80;4.10;;;;;;;11.27;100.00;150303.81;5059084;28;20403;-66
2021/12/30 08:50:53;;;;;;;13.27;3.73;;;;;;;11.30;100.00;150311.59;5059016;28;20043;-65
2021/12/30 08:53:18;;;;;;;11.10;3.80;;;;;;;11.33;100.00;150318.06;5068896;28;20037;-65
2021/12/30 08:55:44;;;;;;;15.60;4.00;;;;;;;11.37;100.00;150329.69;5067887;28;20032;-66
2021/12/30 08:58:09;;;;;;;15.33;4.27;;;;;;;11.37;100.00;150329.69;5058454;28;20314;-65
2021/12/30 09:00:38;;;;;;;10.97;3.23;;;;;;;11.33;100.00;150319.34;5059040;28;20249;-66
2021/12/30 09:03:05;;;;;;;10.73;3.50;;;;;;;11.39;100.00;150333.63;5061504;28;20113;-65
2021/12/30 09:05:32;;;;;;;10.30;3.33;;;;;;;11.39;100.00;150333.63;5063363;28;20036;-65
2021/12/30 09:07:58;;;;;;;11.37;3.60;;;;;;;11.41;100.00;150340.09;5058134;28;20091;-65
2021/12/30 09:10:23;;;;;;;12.90;3.83;;;;;;;11.41;100.00;150338.81;5058214;28;20052;-65
2021/12/30 09:12:51;;;;;;;10.33;3.53;;;;;;;11.47;100.00;150354.34;5053503;28;20112;-66
2021/12/30 09:15:18;;;;;;;9.90;3.70;;;;;;;11.50;100.00;150362.09;5054478;28;20039;-66
2021/12/30 09:17:46;;;;;;;9.73;3.33;;;;;;;11.54;100.00;150372.50;5059374;28;20278;-66
2021/12/30 09:20:12;;;;;;;8.40;2.50;;;;;;;11.58;100.00;150382.84;5052964;28;20500;-66
2021/12/30 09:22:38;;;;;;;6.90;2.73;;;;;;;11.63;100.00;150394.50;5052083;28;20174;-67
2021/12/30 09:25:07;;;;;;;10.53;3.30;;;;;;;11.61;100.00;150390.63;5056152;28;20039;-67
2021/12/30 09:27:37;;;;;;;8.37;2.80;;;;;;;11.58;100.00;150382.84;5060420;28;20109;-67
2021/12/30 09:30:09;;;;;;;6.97;2.87;;;;;;;11.60;100.00;150386.75;5053332;28;20388;-67
2021/12/30 09:32:34;;;;;;;6.82;2.47;;;;;;;11.58;100.00;150382.84;5058234;28;20420;-67
2021/12/30 09:35:00;;;;;;;6.87;2.00;;;;;;;11.58;100.00;150382.84;5057669;28;20047;-67
2021/12/30 09:37:26;;;;;;;5.00;2.20;;;;;;;11.64;100.00;150398.44;5054168;28;20546;-67
2021/12/30 09:39:51;;;;;;;6.03;2.27;;;;;;;11.61;100.00;150389.31;5052729;28;20582;-66
2021/12/30 09:42:18;;;;;;;6.93;2.00;;;;;;;11.63;100.00;150395.84;5056802;28;20472;-66
2021/12/30 09:44:44;;;;;;;5.13;1.97;;;;;;;11.62;100.00;150393.22;5051626;28;20528;-67
2021/12/30 09:47:10;;;;;;;5.37;1.70;;;;;;;11.66;100.00;150403.63;5052255;28;20024;-67
2021/12/30 09:49:35;;;;;;;4.80;1.77;;;;;;;11.67;100.00;150406.19;5063395;28;20086;-67
2021/12/30 09:52:01;;;;;;;6.13;1.70;;;;;;;11.70;100.00;150412.66;5052726;28;20031;-67
2021/12/30 09:54:26;;;;;;;5.37;1.93;;;;;;;11.70;100.00;150413.97;5053044;28;20029;-67
2021/12/30 09:56:52;;;;;;;5.13;2.13;;;;;;;11.72;100.00;150419.16;5054235;28;20544;-67
2021/12/30 09:59:18;;;;;;;5.07;1.80;;;;;;;11.70;100.00;150412.66;5060047;28;20024;-67
2021/12/30 10:01:44;;;;;;;3.87;1.50;;;;;;;11.78;100.00;150433.44;5052807;28;20174;-67
2021/12/30 10:04:12;;;;;;;4.67;1.90;;;;;;;11.79;100.00;150434.72;5051670;28;20435;-67
2021/12/30 10:06:47;;;;;;;3.53;1.53;;;;;;;11.76;100.00;150426.97;5054816;28;20408;-67
2021/12/30 10:09:15;;;;;;;3.13;1.30;;;;;;;11.82;100.00;150442.53;5053418;28;20318;-67
2021/12/30 10:11:50;;;;;;;3.87;1.63;;;;;;;11.80;100.00;150437.38;5050937;28;20053;-67
2021/12/30 10:14:27;;;;;;;5.33;1.73;;;;;;;11.82;100.00;150442.53;5051525;28;20424;-67
2021/12/30 10:17:15;;;;;;;6.00;1.57;;;;;;;11.77;100.00;150429.56;5055804;28;20107;-67
2021/12/30 10:19:41;;;;;;;4.60;1.77;;;;;;;11.79;100.00;150434.72;5053431;28;20036;-67
2021/12/30 10:22:14;;;;;;;5.60;2.07;;;;;;;11.77;100.00;150429.56;5055545;28;20031;-67
2021/12/30 10:24:40;;;;;;;4.87;2.00;;;;;;;11.86;100.00;150452.91;5060249;28;20488;-67
2021/12/30 10:27:07;;;;;;;5.37;1.60;;;;;;;11.92;100.00;150468.50;5053806;28;20034;-67
2021/12/30 10:29:43;;;;;;;4.30;1.50;;;;;;;11.97;100.00;150481.44;5059102;28;20525;-67
2021/12/30 10:32:15;;;;;;;4.60;2.00;;;;;;;12.01;100.00;150491.84;5056335;28;20477;-67
2021/12/30 10:35:12;;;;;;;8.73;2.80;;;;;;;11.98;100.00;150484.03;5053233;28;20115;-67
2021/12/30 10:37:42;;;;;;;8.37;2.40;;;;;;;12.12;100.00;150519.06;4988368;28;20049;-67
2021/12/30 10:40:33;;;;;;;7.30;2.40;;;;;;;12.12;100.00;150520.38;4986671;28;20025;-67
2021/12/30 10:43:19;;;;;;;6.67;2.30;;;;;;;12.11;100.00;150517.75;4990877;28;20060;-67
2021/12/30 10:46:03;;;;;;;8.33;2.60;;;;;;;12.08;100.00;150508.66;4991100;28;20038;-67
2021/12/30 10:48:28;;;;;;;5.47;2.70;;;;;;;12.18;100.00;150535.91;4985920;28;20476;-67
2021/12/30 10:51:11;;;;;;;5.73;2.73;;;;;;;12.23;100.00;150548.88;4989546;28;20037;-67
2021/12/30 10:53:37;;;;;;;5.53;2.70;;;;;;;12.21;100.00;150542.38;5003019;28;20033;-67
2021/12/30 10:56:17;;;;;;;5.50;2.60;;;;;;;12.23;100.00;150548.88;4993410;28;20611;-67
2021/12/30 10:58:43;;;;;;;7.73;2.90;;;;;;;12.24;100.00;150550.22;4994951;28;20034;-67
2021/12/30 11:01:17;;;;;;;7.00;2.60;;;;;;;12.27;100.00;150559.28;5002935;28;20417;-67
2021/12/30 11:03:54;;;;;;;4.70;2.10;;;;;;;12.26;100.00;150556.69;4992671;28;20041;-67
2021/12/30 11:06:20;;;;;;;7.27;2.50;;;;;;;12.26;100.00;150555.38;4993849;28;20123;-67
2021/12/30 11:08:47;;;;;;;5.83;2.57;;;;;;;12.25;100.00;150552.81;4993942;28;20050;-67
2021/12/30 11:11:27;;;;;;;5.80;2.53;;;;;;;12.26;100.00;150555.38;5003755;28;20121;-67
2021/12/30 11:14:08;;;;;;;8.13;2.50;;;;;;;12.27;100.00;150559.28;5020731;28;20107;-67
2021/12/30 11:17:01;;;;;;;4.60;1.97;;;;;;;12.22;100.00;150546.28;5053035;28;20262;-67